sensor_id;sensor_type;location;lat;lon;timestamp;P1;durP1;ratioP1;P2;durP2;ratioP2
61116;SDS011;47002;50.856;6.580;2022-08-03T00:01:04;0.00;;;0.00;;
61116;SDS011;47002;50.856;6.580;2022-08-03T00:03:30;0.00;;;0.00;;
61116;SDS011;47002;50.856;6.580;2022-08-03T00:05:57;0.00;;;0.00;;
61116;SDS011;47002;50.856;6.580;2022-08-03T00:08:22;0.00;;;0.00;;
61116;SDS011;47002;50.856;6.580;2022-08-03T00:10:48;0.00;;;0.00;;
61116;SDS011;47002;50.856;6.580;2022-08-03T00:13:14;0.00;;;0.00;;
61116;SDS011;47002;50.856;6.580;2022-08-03T00:15:40;0.00;;;0.00;;
61116;SDS011;47002;50.856;6.580;2022-08-03T00:18:06;0.00;;;0.00;;
61116;SDS011;47002;50.856;6.580;2022-08-03T00:20:32;0.00;;;0.00;;
61116;SDS011;47002;50.856;6.580;2022-08-03T00:23:00;0.00;;;0.00;;
61116;SDS011;47002;50.856;6.580;2022-08-03T00:25:26;0.00;;;0.00;;
61116;SDS011;47002;50.856;6.580;2022-08-03T00:27:51;0.00;;;0.00;;
61116;SDS011;47002;50.856;6.580;2022-08-03T00:30:17;0.00;;;0.00;;
61116;SDS011;47002;50.856;6.580;2022-08-03T00:32:43;0.00;;;0.00;;
61116;SDS011;47002;50.856;6.580;2022-08-03T00:35:09;0.00;;;0.00;;
61116;SDS011;47002;50.856;6.580;2022-08-03T00:37:34;0.00;;;0.00;;
61116;SDS011;47002;50.856;6.580;2022-08-03T00:40:02;0.00;;;0.00;;
61116;SDS011;47002;50.856;6.580;2022-08-03T00:42:28;0.00;;;0.00;;
61116;SDS011;47002;50.856;6.580;2022-08-03T00:44:54;0.00;;;0.00;;
61116;SDS011;47002;50.856;6.580;2022-08-03T00:47:19;0.00;;;0.00;;
61116;SDS011;47002;50.856;6.580;2022-08-03T00:49:45;0.00;;;0.00;;
61116;SDS011;47002;50.856;6.580;2022-08-03T00:52:11;0.00;;;0.00;;
61116;SDS011;47002;50.856;6.580;2022-08-03T00:54:39;0.00;;;0.00;;
61116;SDS011;47002;50.856;6.580;2022-08-03T00:57:06;0.03;;;0.00;;
61116;SDS011;47002;50.856;6.580;2022-08-03T00:59:32;0.00;;;0.00;;
61116;SDS011;47002;50.856;6.580;2022-08-03T01:01:58;0.00;;;0.00;;
61116;SDS011;47002;50.856;6.580;2022-08-03T01:04:23;0.00;;;0.00;;
61116;SDS011;47002;50.856;6.580;2022-08-03T01:06:51;0.00;;;0.00;;
61116;SDS011;47002;50.856;6.580;2022-08-03T01:09:25;0.00;;;0.00;;
61116;SDS011;47002;50.856;6.580;2022-08-03T01:11:58;0.00;;;0.00;;
61116;SDS011;47002;50.856;6.580;2022-08-03T01:14:31;0.00;;;0.00;;
61116;SDS011;47002;50.856;6.580;2022-08-03T01:17:01;0.00;;;0.00;;
61116;SDS011;47002;50.856;6.580;2022-08-03T01:22:33;0.00;;;0.00;;
61116;SDS011;47002;50.856;6.580;2022-08-03T01:25:09;0.00;;;0.00;;
61116;SDS011;47002;50.856;6.580;2022-08-03T01:27:43;0.00;;;0.00;;
61116;SDS011;47002;50.856;6.580;2022-08-03T01:30:16;0.00;;;0.00;;
61116;SDS011;47002;50.856;6.580;2022-08-03T01:32:45;0.00;;;0.00;;
61116;SDS011;47002;50.856;6.580;2022-08-03T01:35:16;0.00;;;0.00;;
61116;SDS011;47002;50.856;6.580;2022-08-03T01:37:50;0.00;;;0.00;;
61116;SDS011;47002;50.856;6.580;2022-08-03T01:40:20;0.00;;;0.00;;
61116;SDS011;47002;50.856;6.580;2022-08-03T01:42:49;0.00;;;0.00;;
61116;SDS011;47002;50.856;6.580;2022-08-03T01:45:18;0.00;;;0.00;;
61116;SDS011;47002;50.856;6.580;2022-08-03T01:47:45;0.10;;;0.00;;
61116;SDS011;47002;50.856;6.580;2022-08-03T01:50:12;0.00;;;0.00;;
61116;SDS011;47002;50.856;6.580;2022-08-03T01:52:39;0.00;;;0.00;;
61116;SDS011;47002;50.856;6.580;2022-08-03T01:55:08;0.00;;;0.00;;
61116;SDS011;47002;50.856;6.580;2022-08-03T01:57:35;0.00;;;0.00;;
61116;SDS011;47002;50.856;6.580;2022-08-03T02:00:03;0.00;;;0.00;;
61116;SDS011;47002;50.856;6.580;2022-08-03T02:02:31;0.00;;;0.00;;
61116;SDS011;47002;50.856;6.580;2022-08-03T02:04:58;0.00;;;0.00;;
61116;SDS011;47002;50.856;6.580;2022-08-03T02:07:25;0.00;;;0.00;;
61116;SDS011;47002;50.856;6.580;2022-08-03T02:09:53;0.00;;;0.00;;
61116;SDS011;47002;50.856;6.580;2022-08-03T02:12:21;0.00;;;0.00;;
61116;SDS011;47002;50.856;6.580;2022-08-03T02:14:48;0.00;;;0.00;;
61116;SDS011;47002;50.856;6.580;2022-08-03T02:17:15;0.00;;;0.00;;
61116;SDS011;47002;50.856;6.580;2022-08-03T02:19:44;0.00;;;0.00;;
61116;SDS011;47002;50.856;6.580;2022-08-03T02:22:11;0.00;;;0.00;;
61116;SDS011;47002;50.856;6.580;2022-08-03T02:24:37;0.00;;;0.00;;
61116;SDS011;47002;50.856;6.580;2022-08-03T02:27:04;0.00;;;0.00;;
61116;SDS011;47002;50.856;6.580;2022-08-03T02:29:35;0.00;;;0.00;;
61116;SDS011;47002;50.856;6.580;2022-08-03T02:32:03;0.00;;;0.00;;
61116;SDS011;47002;50.856;6.580;2022-08-03T02:34:30;0.00;;;0.00;;
61116;SDS011;47002;50.856;6.580;2022-08-03T02:37:00;0.00;;;0.00;;
61116;SDS011;47002;50.856;6.580;2022-08-03T02:39:29;0.00;;;0.00;;
61116;SDS011;47002;50.856;6.580;2022-08-03T02:41:56;0.00;;;0.00;;
61116;SDS011;47002;50.856;6.580;2022-08-03T02:44:25;0.00;;;0.00;;
61116;SDS011;47002;50.856;6.580;2022-08-03T02:46:53;0.00;;;0.00;;
61116;SDS011;47002;50.856;6.580;2022-08-03T02:49:22;0.00;;;0.00;;
61116;SDS011;47002;50.856;6.580;2022-08-03T02:51:50;0.00;;;0.00;;
61116;SDS011;47002;50.856;6.580;2022-08-03T02:54:19;0.00;;;0.00;;
61116;SDS011;47002;50.856;6.580;2022-08-03T02:56:48;0.00;;;0.00;;
61116;SDS011;47002;50.856;6.580;2022-08-03T02:59:16;0.00;;;0.00;;
61116;SDS011;47002;50.856;6.580;2022-08-03T03:01:44;0.00;;;0.00;;
61116;SDS011;47002;50.856;6.580;2022-08-03T03:04:10;0.00;;;0.00;;
61116;SDS011;47002;50.856;6.580;2022-08-03T03:06:37;0.00;;;0.00;;
61116;SDS011;47002;50.856;6.580;2022-08-03T03:09:03;0.00;;;0.00;;
61116;SDS011;47002;50.856;6.580;2022-08-03T03:11:30;0.00;;;0.00;;
61116;SDS011;47002;50.856;6.580;2022-08-03T03:13:59;0.00;;;0.00;;
61116;SDS011;47002;50.856;6.580;2022-08-03T03:16:26;0.00;;;0.00;;
61116;SDS011;47002;50.856;6.580;2022-08-03T03:18:53;0.00;;;0.00;;
61116;SDS011;47002;50.856;6.580;2022-08-03T03:21:20;0.00;;;0.00;;
61116;SDS011;47002;50.856;6.580;2022-08-03T03:23:47;0.00;;;0.00;;
61116;SDS011;47002;50.856;6.580;2022-08-03T03:26:14;0.00;;;0.00;;
61116;SDS011;47002;50.856;6.580;2022-08-03T03:28:42;0.00;;;0.00;;
61116;SDS011;47002;50.856;6.580;2022-08-03T03:31:08;0.00;;;0.00;;
61116;SDS011;47002;50.856;6.580;2022-08-03T03:33:34;0.00;;;0.00;;
61116;SDS011;47002;50.856;6.580;2022-08-03T03:36:01;0.00;;;0.00;;
61116;SDS011;47002;50.856;6.580;2022-08-03T03:38:28;0.00;;;0.00;;
61116;SDS011;47002;50.856;6.580;2022-08-03T03:40:53;0.00;;;0.00;;
61116;SDS011;47002;50.856;6.580;2022-08-03T03:43:19;0.00;;;0.00;;
61116;SDS011;47002;50.856;6.580;2022-08-03T03:45:48;0.00;;;0.00;;
61116;SDS011;47002;50.856;6.580;2022-08-03T03:48:15;0.00;;;0.00;;
61116;SDS011;47002;50.856;6.580;2022-08-03T03:50:42;0.00;;;0.00;;
61116;SDS011;47002;50.856;6.580;2022-08-03T03:53:08;0.00;;;0.00;;
61116;SDS011;47002;50.856;6.580;2022-08-03T03:55:35;0.00;;;0.00;;
61116;SDS011;47002;50.856;6.580;2022-08-03T03:58:01;0.00;;;0.00;;
61116;SDS011;47002;50.856;6.580;2022-08-03T04:00:27;0.00;;;0.00;;
61116;SDS011;47002;50.856;6.580;2022-08-03T04:02:55;0.00;;;0.00;;
61116;SDS011;47002;50.856;6.580;2022-08-03T04:05:21;0.00;;;0.00;;
61116;SDS011;47002;50.856;6.580;2022-08-03T04:07:48;0.00;;;0.00;;
61116;SDS011;47002;50.856;6.580;2022-08-03T04:10:22;0.00;;;0.00;;
61116;SDS011;47002;50.856;6.580;2022-08-03T04:12:53;0.00;;;0.00;;
61116;SDS011;47002;50.856;6.580;2022-08-03T04:15:23;0.00;;;0.00;;
61116;SDS011;47002;50.856;6.580;2022-08-03T04:17:51;0.00;;;0.00;;
61116;SDS011;47002;50.856;6.580;2022-08-03T04:20:20;0.00;;;0.00;;
61116;SDS011;47002;50.856;6.580;2022-08-03T04:22:48;0.00;;;0.00;;
61116;SDS011;47002;50.856;6.580;2022-08-03T04:25:15;0.00;;;0.00;;
61116;SDS011;47002;50.856;6.580;2022-08-03T04:27:42;0.00;;;0.00;;
61116;SDS011;47002;50.856;6.580;2022-08-03T04:30:10;0.00;;;0.00;;
61116;SDS011;47002;50.856;6.580;2022-08-03T04:32:36;0.00;;;0.00;;
61116;SDS011;47002;50.856;6.580;2022-08-03T04:35:04;0.00;;;0.00;;
61116;SDS011;47002;50.856;6.580;2022-08-03T04:37:34;0.00;;;0.00;;
61116;SDS011;47002;50.856;6.580;2022-08-03T04:40:04;0.00;;;0.00;;
61116;SDS011;47002;50.856;6.580;2022-08-03T04:42:33;0.00;;;0.00;;
61116;SDS011;47002;50.856;6.580;2022-08-03T04:45:00;0.00;;;0.00;;
61116;SDS011;47002;50.856;6.580;2022-08-03T04:47:28;0.00;;;0.00;;
61116;SDS011;47002;50.856;6.580;2022-08-03T04:49:56;0.00;;;0.00;;
61116;SDS011;47002;50.856;6.580;2022-08-03T04:52:22;0.00;;;0.00;;
61116;SDS011;47002;50.856;6.580;2022-08-03T04:54:49;0.00;;;0.00;;
61116;SDS011;47002;50.856;6.580;2022-08-03T04:57:15;0.00;;;0.00;;
61116;SDS011;47002;50.856;6.580;2022-08-03T04:59:41;0.00;;;0.00;;
61116;SDS011;47002;50.856;6.580;2022-08-03T05:02:07;0.00;;;0.00;;
61116;SDS011;47002;50.856;6.580;2022-08-03T05:04:33;0.00;;;0.00;;
61116;SDS011;47002;50.856;6.580;2022-08-03T05:06:58;0.00;;;0.00;;
61116;SDS011;47002;50.856;6.580;2022-08-03T05:09:24;0.00;;;0.00;;
61116;SDS011;47002;50.856;6.580;2022-08-03T05:11:51;0.10;;;0.00;;
61116;SDS011;47002;50.856;6.580;2022-08-03T05:14:17;0.00;;;0.00;;
61116;SDS011;47002;50.856;6.580;2022-08-03T05:16:42;0.00;;;0.00;;
61116;SDS011;47002;50.856;6.580;2022-08-03T05:19:08;0.00;;;0.00;;
61116;SDS011;47002;50.856;6.580;2022-08-03T05:21:34;0.00;;;0.00;;
61116;SDS011;47002;50.856;6.580;2022-08-03T05:23:59;0.00;;;0.00;;
61116;SDS011;47002;50.856;6.580;2022-08-03T05:26:25;0.00;;;0.00;;
61116;SDS011;47002;50.856;6.580;2022-08-03T05:28:52;0.00;;;0.00;;
61116;SDS011;47002;50.856;6.580;2022-08-03T05:31:18;0.00;;;0.00;;
61116;SDS011;47002;50.856;6.580;2022-08-03T05:33:44;0.00;;;0.00;;
61116;SDS011;47002;50.856;6.580;2022-08-03T05:36:09;0.00;;;0.00;;
61116;SDS011;47002;50.856;6.580;2022-08-03T05:38:35;0.00;;;0.00;;
61116;SDS011;47002;50.856;6.580;2022-08-03T05:41:01;0.00;;;0.00;;
61116;SDS011;47002;50.856;6.580;2022-08-03T05:43:27;0.00;;;0.00;;
61116;SDS011;47002;50.856;6.580;2022-08-03T05:45:54;0.00;;;0.00;;
61116;SDS011;47002;50.856;6.580;2022-08-03T05:48:20;0.00;;;0.00;;
61116;SDS011;47002;50.856;6.580;2022-08-03T05:50:45;0.00;;;0.00;;
61116;SDS011;47002;50.856;6.580;2022-08-03T05:53:11;0.00;;;0.00;;
61116;SDS011;47002;50.856;6.580;2022-08-03T05:55:37;0.08;;;0.00;;
61116;SDS011;47002;50.856;6.580;2022-08-03T05:58:02;0.03;;;0.03;;
61116;SDS011;47002;50.856;6.580;2022-08-03T06:00:28;0.00;;;0.00;;
61116;SDS011;47002;50.856;6.580;2022-08-03T06:02:55;0.00;;;0.00;;
61116;SDS011;47002;50.856;6.580;2022-08-03T06:05:21;0.00;;;0.00;;
61116;SDS011;47002;50.856;6.580;2022-08-03T06:07:47;0.00;;;0.00;;
61116;SDS011;47002;50.856;6.580;2022-08-03T06:10:12;0.00;;;0.00;;
61116;SDS011;47002;50.856;6.580;2022-08-03T06:12:38;0.00;;;0.00;;
61116;SDS011;47002;50.856;6.580;2022-08-03T06:15:04;0.00;;;0.00;;
61116;SDS011;47002;50.856;6.580;2022-08-03T06:17:30;0.00;;;0.00;;
61116;SDS011;47002;50.856;6.580;2022-08-03T06:19:57;0.00;;;0.00;;
61116;SDS011;47002;50.856;6.580;2022-08-03T06:22:23;0.00;;;0.00;;
61116;SDS011;47002;50.856;6.580;2022-08-03T06:24:49;0.00;;;0.00;;
61116;SDS011;47002;50.856;6.580;2022-08-03T06:27:15;0.00;;;0.00;;
61116;SDS011;47002;50.856;6.580;2022-08-03T06:29:40;0.00;;;0.00;;
61116;SDS011;47002;50.856;6.580;2022-08-03T06:32:06;0.00;;;0.00;;
61116;SDS011;47002;50.856;6.580;2022-08-03T06:34:32;0.00;;;0.00;;
61116;SDS011;47002;50.856;6.580;2022-08-03T06:36:59;0.00;;;0.00;;
61116;SDS011;47002;50.856;6.580;2022-08-03T06:39:24;0.10;;;0.00;;
61116;SDS011;47002;50.856;6.580;2022-08-03T06:41:50;0.00;;;0.00;;
61116;SDS011;47002;50.856;6.580;2022-08-03T06:44:16;0.00;;;0.00;;
61116;SDS011;47002;50.856;6.580;2022-08-03T06:46:42;0.00;;;0.00;;
61116;SDS011;47002;50.856;6.580;2022-08-03T06:49:07;0.10;;;0.03;;
61116;SDS011;47002;50.856;6.580;2022-08-03T06:51:33;0.00;;;0.00;;
61116;SDS011;47002;50.856;6.580;2022-08-03T06:54:00;0.00;;;0.00;;
61116;SDS011;47002;50.856;6.580;2022-08-03T06:56:26;0.00;;;0.00;;
61116;SDS011;47002;50.856;6.580;2022-08-03T06:58:52;0.00;;;0.00;;
61116;SDS011;47002;50.856;6.580;2022-08-03T07:01:17;0.00;;;0.00;;
61116;SDS011;47002;50.856;6.580;2022-08-03T07:03:43;0.00;;;0.00;;
61116;SDS011;47002;50.856;6.580;2022-08-03T07:06:09;0.00;;;0.00;;
61116;SDS011;47002;50.856;6.580;2022-08-03T07:08:34;0.00;;;0.00;;
61116;SDS011;47002;50.856;6.580;2022-08-03T07:11:01;0.00;;;0.00;;
61116;SDS011;47002;50.856;6.580;2022-08-03T07:13:27;0.00;;;0.00;;
61116;SDS011;47002;50.856;6.580;2022-08-03T07:15:53;0.00;;;0.00;;
61116;SDS011;47002;50.856;6.580;2022-08-03T07:18:19;0.00;;;0.00;;
61116;SDS011;47002;50.856;6.580;2022-08-03T07:20:44;0.10;;;0.10;;
61116;SDS011;47002;50.856;6.580;2022-08-03T07:23:10;0.00;;;0.00;;
61116;SDS011;47002;50.856;6.580;2022-08-03T07:25:36;0.00;;;0.00;;
61116;SDS011;47002;50.856;6.580;2022-08-03T07:28:03;0.00;;;0.00;;
61116;SDS011;47002;50.856;6.580;2022-08-03T07:30:29;0.00;;;0.00;;
61116;SDS011;47002;50.856;6.580;2022-08-03T07:32:55;0.03;;;0.03;;
61116;SDS011;47002;50.856;6.580;2022-08-03T07:35:20;0.00;;;0.00;;
61116;SDS011;47002;50.856;6.580;2022-08-03T07:37:46;0.05;;;0.05;;
61116;SDS011;47002;50.856;6.580;2022-08-03T07:40:12;0.00;;;0.00;;
61116;SDS011;47002;50.856;6.580;2022-08-03T07:42:37;0.10;;;0.10;;
61116;SDS011;47002;50.856;6.580;2022-08-03T07:45:05;0.00;;;0.00;;
61116;SDS011;47002;50.856;6.580;2022-08-03T07:47:31;0.10;;;0.10;;
61116;SDS011;47002;50.856;6.580;2022-08-03T07:49:57;0.10;;;0.10;;
61116;SDS011;47002;50.856;6.580;2022-08-03T07:52:23;0.10;;;0.10;;
61116;SDS011;47002;50.856;6.580;2022-08-03T07:54:48;0.10;;;0.10;;
61116;SDS011;47002;50.856;6.580;2022-08-03T07:57:14;0.10;;;0.10;;
61116;SDS011;47002;50.856;6.580;2022-08-03T07:59:40;0.10;;;0.10;;
61116;SDS011;47002;50.856;6.580;2022-08-03T08:02:07;0.10;;;0.10;;
61116;SDS011;47002;50.856;6.580;2022-08-03T08:04:33;0.10;;;0.10;;
61116;SDS011;47002;50.856;6.580;2022-08-03T08:06:58;0.10;;;0.10;;
61116;SDS011;47002;50.856;6.580;2022-08-03T08:09:24;0.10;;;0.10;;
61116;SDS011;47002;50.856;6.580;2022-08-03T08:11:50;0.10;;;0.10;;
61116;SDS011;47002;50.856;6.580;2022-08-03T08:14:15;0.10;;;0.10;;
61116;SDS011;47002;50.856;6.580;2022-08-03T08:16:41;0.10;;;0.10;;
61116;SDS011;47002;50.856;6.580;2022-08-03T08:19:08;0.10;;;0.10;;
61116;SDS011;47002;50.856;6.580;2022-08-03T08:21:34;0.10;;;0.10;;
61116;SDS011;47002;50.856;6.580;2022-08-03T08:24:00;0.10;;;0.10;;
61116;SDS011;47002;50.856;6.580;2022-08-03T08:26:26;0.10;;;0.10;;
61116;SDS011;47002;50.856;6.580;2022-08-03T08:28:51;0.10;;;0.10;;
61116;SDS011;47002;50.856;6.580;2022-08-03T08:31:17;0.10;;;0.10;;
61116;SDS011;47002;50.856;6.580;2022-08-03T08:33:43;0.10;;;0.10;;
61116;SDS011;47002;50.856;6.580;2022-08-03T08:36:10;0.10;;;0.10;;
61116;SDS011;47002;50.856;6.580;2022-08-03T08:38:36;0.10;;;0.10;;
61116;SDS011;47002;50.856;6.580;2022-08-03T08:41:02;0.20;;;0.20;;
61116;SDS011;47002;50.856;6.580;2022-08-03T08:43:28;0.10;;;0.10;;
61116;SDS011;47002;50.856;6.580;2022-08-03T08:45:53;0.10;;;0.10;;
61116;SDS011;47002;50.856;6.580;2022-08-03T08:48:24;0.10;;;0.10;;
61116;SDS011;47002;50.856;6.580;2022-08-03T08:50:51;0.10;;;0.10;;
61116;SDS011;47002;50.856;6.580;2022-08-03T08:53:19;0.20;;;0.20;;
61116;SDS011;47002;50.856;6.580;2022-08-03T08:55:46;0.10;;;0.10;;
61116;SDS011;47002;50.856;6.580;2022-08-03T08:58:12;0.20;;;0.20;;
61116;SDS011;47002;50.856;6.580;2022-08-03T09:00:41;0.20;;;0.20;;
61116;SDS011;47002;50.856;6.580;2022-08-03T09:03:08;0.20;;;0.20;;
61116;SDS011;47002;50.856;6.580;2022-08-03T09:05:34;0.20;;;0.20;;
61116;SDS011;47002;50.856;6.580;2022-08-03T09:08:01;0.20;;;0.20;;
61116;SDS011;47002;50.856;6.580;2022-08-03T09:10:31;0.20;;;0.20;;
61116;SDS011;47002;50.856;6.580;2022-08-03T09:12:57;0.20;;;0.20;;
61116;SDS011;47002;50.856;6.580;2022-08-03T09:15:23;0.20;;;0.20;;
61116;SDS011;47002;50.856;6.580;2022-08-03T09:17:51;0.20;;;0.20;;
61116;SDS011;47002;50.856;6.580;2022-08-03T09:20:19;0.20;;;0.20;;
61116;SDS011;47002;50.856;6.580;2022-08-03T09:22:56;0.20;;;0.20;;
61116;SDS011;47002;50.856;6.580;2022-08-03T09:25:26;0.20;;;0.20;;
61116;SDS011;47002;50.856;6.580;2022-08-03T09:28:03;0.20;;;0.20;;
61116;SDS011;47002;50.856;6.580;2022-08-03T09:30:31;0.20;;;0.20;;
61116;SDS011;47002;50.856;6.580;2022-08-03T09:32:58;0.20;;;0.20;;
61116;SDS011;47002;50.856;6.580;2022-08-03T09:35:25;0.20;;;0.20;;
61116;SDS011;47002;50.856;6.580;2022-08-03T09:37:55;0.20;;;0.20;;
61116;SDS011;47002;50.856;6.580;2022-08-03T09:40:35;0.20;;;0.20;;
61116;SDS011;47002;50.856;6.580;2022-08-03T09:43:01;0.20;;;0.20;;
61116;SDS011;47002;50.856;6.580;2022-08-03T09:45:27;0.20;;;0.20;;
61116;SDS011;47002;50.856;6.580;2022-08-03T09:47:53;0.30;;;0.30;;
61116;SDS011;47002;50.856;6.580;2022-08-03T09:50:18;0.20;;;0.20;;
61116;SDS011;47002;50.856;6.580;2022-08-03T09:52:44;0.20;;;0.20;;
61116;SDS011;47002;50.856;6.580;2022-08-03T09:55:11;0.22;;;0.22;;
61116;SDS011;47002;50.856;6.580;2022-08-03T09:57:39;0.20;;;0.20;;
61116;SDS011;47002;50.856;6.580;2022-08-03T10:00:06;0.20;;;0.20;;
61116;SDS011;47002;50.856;6.580;2022-08-03T10:02:33;0.20;;;0.20;;
61116;SDS011;47002;50.856;6.580;2022-08-03T10:04:59;0.30;;;0.30;;
61116;SDS011;47002;50.856;6.580;2022-08-03T10:07:25;0.20;;;0.20;;
61116;SDS011;47002;50.856;6.580;2022-08-03T10:09:54;0.30;;;0.30;;
61116;SDS011;47002;50.856;6.580;2022-08-03T10:12:21;0.30;;;0.30;;
61116;SDS011;47002;50.856;6.580;2022-08-03T10:14:49;0.30;;;0.30;;
61116;SDS011;47002;50.856;6.580;2022-08-03T10:17:15;0.30;;;0.30;;
61116;SDS011;47002;50.856;6.580;2022-08-03T10:19:40;0.20;;;0.20;;
61116;SDS011;47002;50.856;6.580;2022-08-03T10:22:06;0.30;;;0.30;;
61116;SDS011;47002;50.856;6.580;2022-08-03T10:24:36;0.28;;;0.28;;
61116;SDS011;47002;50.856;6.580;2022-08-03T10:27:06;0.30;;;0.30;;
61116;SDS011;47002;50.856;6.580;2022-08-03T10:29:33;0.20;;;0.20;;
61116;SDS011;47002;50.856;6.580;2022-08-03T10:32:05;0.30;;;0.30;;
61116;SDS011;47002;50.856;6.580;2022-08-03T10:34:36;0.20;;;0.20;;
61116;SDS011;47002;50.856;6.580;2022-08-03T10:37:06;0.30;;;0.30;;
61116;SDS011;47002;50.856;6.580;2022-08-03T10:39:34;0.30;;;0.30;;
61116;SDS011;47002;50.856;6.580;2022-08-03T10:42:00;0.30;;;0.30;;
61116;SDS011;47002;50.856;6.580;2022-08-03T10:44:29;0.30;;;0.30;;
61116;SDS011;47002;50.856;6.580;2022-08-03T10:47:01;0.30;;;0.30;;
61116;SDS011;47002;50.856;6.580;2022-08-03T10:49:29;0.30;;;0.30;;
61116;SDS011;47002;50.856;6.580;2022-08-03T10:51:55;0.30;;;0.30;;
61116;SDS011;47002;50.856;6.580;2022-08-03T10:54:37;0.30;;;0.30;;
61116;SDS011;47002;50.856;6.580;2022-08-03T10:57:03;0.30;;;0.30;;
61116;SDS011;47002;50.856;6.580;2022-08-03T11:05:27;0.30;;;0.30;;
61116;SDS011;47002;50.856;6.580;2022-08-03T11:10:44;0.30;;;0.30;;
61116;SDS011;47002;50.856;6.580;2022-08-03T11:13:10;0.30;;;0.30;;
61116;SDS011;47002;50.856;6.580;2022-08-03T11:15:39;0.30;;;0.30;;
61116;SDS011;47002;50.856;6.580;2022-08-03T11:18:09;0.30;;;0.30;;
61116;SDS011;47002;50.856;6.580;2022-08-03T11:20:48;0.35;;;0.35;;
61116;SDS011;47002;50.856;6.580;2022-08-03T11:23:17;0.30;;;0.30;;
61116;SDS011;47002;50.856;6.580;2022-08-03T11:28:35;0.40;;;0.40;;
61116;SDS011;47002;50.856;6.580;2022-08-03T11:34:06;0.30;;;0.30;;
61116;SDS011;47002;50.856;6.580;2022-08-03T11:39:38;0.30;;;0.30;;
61116;SDS011;47002;50.856;6.580;2022-08-03T11:45:03;0.32;;;0.32;;
61116;SDS011;47002;50.856;6.580;2022-08-03T11:47:34;0.35;;;0.35;;
61116;SDS011;47002;50.856;6.580;2022-08-03T11:50:03;0.40;;;0.40;;
61116;SDS011;47002;50.856;6.580;2022-08-03T11:52:33;0.35;;;0.35;;
61116;SDS011;47002;50.856;6.580;2022-08-03T11:55:00;0.30;;;0.30;;
61116;SDS011;47002;50.856;6.580;2022-08-03T11:57:29;0.32;;;0.32;;
61116;SDS011;47002;50.856;6.580;2022-08-03T11:59:56;0.35;;;0.35;;
61116;SDS011;47002;50.856;6.580;2022-08-03T12:02:22;0.40;;;0.40;;
61116;SDS011;47002;50.856;6.580;2022-08-03T12:04:48;0.40;;;0.40;;
61116;SDS011;47002;50.856;6.580;2022-08-03T12:07:16;0.40;;;0.40;;
61116;SDS011;47002;50.856;6.580;2022-08-03T12:09:41;0.40;;;0.40;;
61116;SDS011;47002;50.856;6.580;2022-08-03T12:12:07;0.35;;;0.35;;
61116;SDS011;47002;50.856;6.580;2022-08-03T12:14:33;0.40;;;0.40;;
61116;SDS011;47002;50.856;6.580;2022-08-03T12:16:59;0.40;;;0.40;;
61116;SDS011;47002;50.856;6.580;2022-08-03T12:19:24;0.47;;;0.40;;
61116;SDS011;47002;50.856;6.580;2022-08-03T12:21:50;0.40;;;0.40;;
61116;SDS011;47002;50.856;6.580;2022-08-03T12:24:17;0.40;;;0.40;;
61116;SDS011;47002;50.856;6.580;2022-08-03T12:26:43;0.40;;;0.40;;
61116;SDS011;47002;50.856;6.580;2022-08-03T12:29:15;0.40;;;0.40;;
61116;SDS011;47002;50.856;6.580;2022-08-03T12:31:41;0.40;;;0.40;;
61116;SDS011;47002;50.856;6.580;2022-08-03T12:34:06;0.40;;;0.40;;
61116;SDS011;47002;50.856;6.580;2022-08-03T12:36:33;0.40;;;0.40;;
61116;SDS011;47002;50.856;6.580;2022-08-03T12:38:59;0.47;;;0.47;;
61116;SDS011;47002;50.856;6.580;2022-08-03T12:41:29;0.40;;;0.40;;
61116;SDS011;47002;50.856;6.580;2022-08-03T12:43:56;0.40;;;0.40;;
61116;SDS011;47002;50.856;6.580;2022-08-03T12:46:22;0.40;;;0.40;;
61116;SDS011;47002;50.856;6.580;2022-08-03T12:48:58;0.40;;;0.40;;
61116;SDS011;47002;50.856;6.580;2022-08-03T12:51:29;0.43;;;0.43;;
61116;SDS011;47002;50.856;6.580;2022-08-03T12:53:57;0.40;;;0.40;;
61116;SDS011;47002;50.856;6.580;2022-08-03T12:56:23;0.40;;;0.40;;
61116;SDS011;47002;50.856;6.580;2022-08-03T12:58:50;0.40;;;0.40;;
61116;SDS011;47002;50.856;6.580;2022-08-03T13:01:16;0.40;;;0.40;;
61116;SDS011;47002;50.856;6.580;2022-08-03T13:03:42;0.40;;;0.40;;
61116;SDS011;47002;50.856;6.580;2022-08-03T13:06:10;0.40;;;0.40;;
61116;SDS011;47002;50.856;6.580;2022-08-03T13:08:36;0.47;;;0.47;;
61116;SDS011;47002;50.856;6.580;2022-08-03T13:11:16;0.47;;;0.47;;
61116;SDS011;47002;50.856;6.580;2022-08-03T13:13:46;0.50;;;0.50;;
61116;SDS011;47002;50.856;6.580;2022-08-03T13:16:13;0.52;;;0.50;;
61116;SDS011;47002;50.856;6.580;2022-08-03T13:18:38;0.47;;;0.47;;
61116;SDS011;47002;50.856;6.580;2022-08-03T13:21:04;0.60;;;0.50;;
61116;SDS011;47002;50.856;6.580;2022-08-03T13:23:30;0.50;;;0.50;;
61116;SDS011;47002;50.856;6.580;2022-08-03T13:25:55;0.50;;;0.50;;
61116;SDS011;47002;50.856;6.580;2022-08-03T13:28:21;0.50;;;0.50;;
61116;SDS011;47002;50.856;6.580;2022-08-03T13:30:47;0.60;;;0.60;;
61116;SDS011;47002;50.856;6.580;2022-08-03T13:33:14;0.60;;;0.60;;
61116;SDS011;47002;50.856;6.580;2022-08-03T13:35:40;0.70;;;0.60;;
61116;SDS011;47002;50.856;6.580;2022-08-03T13:38:06;0.70;;;0.70;;
61116;SDS011;47002;50.856;6.580;2022-08-03T13:40:31;0.75;;;0.75;;
61116;SDS011;47002;50.856;6.580;2022-08-03T13:42:57;0.90;;;0.90;;
61116;SDS011;47002;50.856;6.580;2022-08-03T13:45:23;1.30;;;1.20;;
61116;SDS011;47002;50.856;6.580;2022-08-03T13:47:49;1.40;;;1.30;;
61116;SDS011;47002;50.856;6.580;2022-08-03T13:50:16;1.60;;;1.50;;
61116;SDS011;47002;50.856;6.580;2022-08-03T13:52:41;1.90;;;1.80;;
61116;SDS011;47002;50.856;6.580;2022-08-03T13:55:07;2.30;;;2.20;;
61116;SDS011;47002;50.856;6.580;2022-08-03T13:57:34;2.60;;;2.50;;
61116;SDS011;47002;50.856;6.580;2022-08-03T13:59:59;3.40;;;3.20;;
61116;SDS011;47002;50.856;6.580;2022-08-03T14:02:25;3.90;;;3.70;;
61116;SDS011;47002;50.856;6.580;2022-08-03T14:04:51;4.45;;;4.25;;
61116;SDS011;47002;50.856;6.580;2022-08-03T14:07:18;5.63;;;5.32;;
61116;SDS011;47002;50.856;6.580;2022-08-03T14:09:43;6.95;;;6.65;;
61116;SDS011;47002;50.856;6.580;2022-08-03T14:12:09;9.73;;;9.23;;
61116;SDS011;47002;50.856;6.580;2022-08-03T14:14:35;13.23;;;12.57;;
61116;SDS011;47002;50.856;6.580;2022-08-03T14:17:01;13.95;;;13.25;;
61116;SDS011;47002;50.856;6.580;2022-08-03T14:19:26;14.27;;;13.57;;
61116;SDS011;47002;50.856;6.580;2022-08-03T14:21:52;15.85;;;15.05;;
61116;SDS011;47002;50.856;6.580;2022-08-03T14:24:19;16.60;;;15.80;;
61116;SDS011;47002;50.856;6.580;2022-08-03T14:26:45;17.48;;;16.60;;
61116;SDS011;47002;50.856;6.580;2022-08-03T14:29:11;20.75;;;19.75;;
61116;SDS011;47002;50.856;6.580;2022-08-03T14:31:36;22.33;;;21.23;;
61116;SDS011;47002;50.856;6.580;2022-08-03T14:34:02;24.42;;;23.23;;
61116;SDS011;47002;50.856;6.580;2022-08-03T14:36:29;28.50;;;27.10;;
61116;SDS011;47002;50.856;6.580;2022-08-03T14:38:55;32.65;;;31.05;;
61116;SDS011;47002;50.856;6.580;2022-08-03T14:41:22;38.33;;;36.42;;
61116;SDS011;47002;50.856;6.580;2022-08-03T14:43:48;43.72;;;41.58;;
61116;SDS011;47002;50.856;6.580;2022-08-03T14:46:13;51.50;;;49.00;;
61116;SDS011;47002;50.856;6.580;2022-08-03T14:48:39;58.00;;;55.13;;
61116;SDS011;47002;50.856;6.580;2022-08-03T14:51:05;69.30;;;65.93;;
61116;SDS011;47002;50.856;6.580;2022-08-03T14:53:30;80.20;;;76.40;;
61116;SDS011;47002;50.856;6.580;2022-08-03T14:55:57;92.07;;;87.80;;
61116;SDS011;47002;50.856;6.580;2022-08-03T14:58:24;100.97;;;96.35;;
61116;SDS011;47002;50.856;6.580;2022-08-03T15:00:50;112.78;;;107.68;;
61116;SDS011;47002;50.856;6.580;2022-08-03T15:03:17;116.75;;;111.47;;
61116;SDS011;47002;50.856;6.580;2022-08-03T15:05:43;115.97;;;110.75;;
61116;SDS011;47002;50.856;6.580;2022-08-03T15:08:08;105.18;;;100.38;;